Welcome to our new website - Welkom op onze vernieuwde website - Bienvenue sur notre nouveau site web - Willkommen auf unserer neuen Website
Check our progress frequently. Prüfen Sie unsere Fortschritte regelmäßig. Consultez notre progression fréquemment. Komt u straks nog eens terug


Bezoek onze andere website:

Template documentation
and downloads

And another site



METAR rapporten vliegvelden

   
EBBR - Brussels International Airport, Belgium
Afstand tot: W 14 km
Gewijzigd: Dec 11 2019 11:50 am
Grotendeels bewolkt  
Grotendeels bewolkt  
   Wind: ZZW 19 km/h
Wind: ZZW 19 km/h
Temperatuur: 6°C
Voelt als: 3°C
Dauwpunt: 4°C
Vochtigheid: 87%
Barometer: 1008 hPa
Bewolking: Grotendeels bewolkt
Zicht: meer dan 10 km
Bewolking: Licht bewolkt 274.3 m,
Grotendeels bewolkt 1097.3 m
EBBR 111050Z 21010KT 9999 FEW009 BKN036 06/04 Q1008 TEMPO BKN012
EBBE - Beauvechain (Bevekom), Belgium
Afstand tot: ZZO 17 km
Gewijzigd: Dec 11 2019 11:55 am
Grotendeels bewolkt  
Grotendeels bewolkt  
   Wind: ZZW 13 km/h
Wind: ZZW 13 km/h
Temperatuur: 5°C
Voelt als: 2°C
Dauwpunt: 4°C
Vochtigheid: 93%
Barometer: 1008 hPa
Bewolking: Grotendeels bewolkt
Zicht: meer dan 10 km
Bewolking: Licht bewolkt 243.8 m,
Gedeeltelijk bewolkt 1524 m,
Grotendeels bewolkt 2133.6 m
EBBE 111055Z 21007KT 9999 FEW008 SCT050 BKN070 05/04 Q1008 BLU BLU TEMPO GRN
EBDT - Schaffen, Belgium
Afstand tot: ONO 29 km
Gewijzigd: Dec 11 2019 11:55 am
Bewolking  
Bewolking  
   Wind: Zuiden 15 km/h
Wind: Zuiden 15 km/h
Temperatuur: 5°C
Voelt als: 2°C
Dauwpunt: 4°C
Vochtigheid: 93%
Barometer: 1008 hPa
Bewolking: Bewolking
Zicht: meer dan 10 km
Bewolking: Licht bewolkt 182.9 m,
Grotendeels bewolkt 1828.8 m,
Bewolking 2895.6 m
EBDT 111055Z AUTO 19008KT 9999 FEW006/// BKN060/// OVC095/// 05/04 Q1008 BLU
EBAW - Antwerp/Deurne, Belgium
Afstand tot: NNW 38 km
Gewijzigd: Dec 11 2019 11:50 am
Gedeeltelijk bewolkt  
Gedeeltelijk bewolkt  
   Wind: ZZW 13 km/h
Wind: ZZW 13 km/h
Temperatuur: 7°C
Voelt als: 4°C
Dauwpunt: 5°C
Vochtigheid: 87%
Barometer: 1008 hPa
Bewolking: Gedeeltelijk bewolkt
Zicht: meer dan 10 km
Bewolking: Licht bewolkt 457.2 m,
Gedeeltelijk bewolkt 853.4 m
EBAW 111050Z 21007KT 9999 FEW015 SCT028 07/05 Q1008 TEMPO BKN012
EBCI - Charleroi/Gosselies, Belgium
Afstand tot: ZZW 51 km
Gewijzigd: Dec 11 2019 11:50 am
Grotendeels bewolkt  
Grotendeels bewolkt  
   Wind: Zuiden 11 km/h
Wind: Zuiden 11 km/h
Temperatuur: 5°C
Voelt als: 2°C
Dauwpunt: 4°C
Vochtigheid: 93%
Barometer: 1008 hPa
Bewolking: Grotendeels bewolkt
Zicht: meer dan 10 km
Bewolking: Gedeeltelijk bewolkt 152.4 m,
Grotendeels bewolkt 914.4 m
EBCI 111050Z 19006KT 9999 SCT005 BKN030 05/04 Q1008 TEMPO BKN005
EBLG - Bierset/Liege, Belgium
Afstand tot: OZO 60 km
Gewijzigd: Dec 11 2019 11:50 am
Wat regen mogelijk, Motregen, Grotendeels bewolkt  
Wat regen mogelijk, Motregen, Grotendeels bewolkt  
   Wind: ZZW 17 km/h
Wind: ZZW 17 km/h
Temperatuur: 4°C
Voelt als: 0°C
Dauwpunt: 3°C
Vochtigheid: 93%
Barometer: 1008 hPa
Bewolking: Grotendeels bewolkt
Zicht: 8 km
Bewolking: Gedeeltelijk bewolkt 213.4 m,
Grotendeels bewolkt 609.6 m
EBLG 111050Z 20009KT 160V220 8000 -RADZ SCT007 BKN020 04/03 Q1008 NOSIG

Script ontwikkeld door  Saratoga-weather.org Aangepast voor de template door  Weerstation Leuven

U vindt ons ook hier:

Het Weer Aktueel

UK Metoffice

European Weather Network

WeatherCloud

Weather Underground

AWEKAS

Apparatuur in gebruik:

Weerstation
Davis VP2

Weerprogramma
Meteobridge

Weercomputer
Tl-mr3020

Webleverancier
Robohost

Davis VP2

Meteobridge

Tl-mr3020

Robohost